Time;durP1;ratioP1;P1;durP2;ratioP2;P2;SDS_P1;SDS_P2;PMS_P1;PMS_P2;Temp;Humidity;BMP_temperature;BMP_pressure;BME280_temperature;BME280_humidity;BME280_pressure;Samples;Min_cycle;Max_cycle;Signal;HPM_P1;HPM_P2
2023/11/08 00:01:47;;;;;;;4.07;1.90;;;8.70;99.90;;;;;;5024376;28;20244;-94
2023/11/08 00:04:13;;;;;;;5.83;2.10;;;8.80;99.90;;;;;;5027575;28;20210;-94
2023/11/08 00:06:42;;;;;;;4.27;1.67;;;8.70;99.90;;;;;;5034926;28;20229;-90
2023/11/08 00:09:15;;;;;;;4.80;1.70;;;8.70;99.90;;;;;;5033606;28;20175;-92
2023/11/08 00:11:46;;;;;;;4.37;1.83;;;8.70;99.90;;;;;;5026223;28;20193;-93
2023/11/08 00:14:12;;;;;;;5.53;2.07;;;8.90;99.90;;;;;;5026928;28;20182;-94
2023/11/08 00:16:51;;;;;;;4.47;1.87;;;8.80;99.90;;;;;;5029409;28;20178;-93
2023/11/08 00:19:43;;;;;;;3.50;1.70;;;8.90;99.90;;;;;;5031040;28;20178;-96
2023/11/08 00:22:14;;;;;;;4.10;1.60;;;8.80;99.90;;;;;;5030278;28;20341;-94
2023/11/08 00:24:41;;;;;;;4.77;1.80;;;8.80;99.90;;;;;;5029700;28;20154;-92
2023/11/08 00:27:09;;;;;;;5.03;1.90;;;8.70;99.90;;;;;;5028938;28;20220;-93
2023/11/08 00:29:35;;;;;;;5.43;1.90;;;8.70;99.90;;;;;;5030283;28;20238;-95
2023/11/08 00:32:05;;;;;;;3.60;1.33;;;8.70;99.90;;;;;;5031335;28;20178;-93
2023/11/08 00:34:32;;;;;;;4.23;1.50;;;8.70;99.90;;;;;;5034186;28;20242;-95
2023/11/08 00:37:09;;;;;;;3.17;1.50;;;8.70;99.90;;;;;;5035542;28;20208;-95
2023/11/08 00:39:35;;;;;;;5.03;1.80;;;8.80;99.90;;;;;;5055506;28;20176;-93
2023/11/08 00:42:05;;;;;;;3.00;1.50;;;8.70;99.90;;;;;;5042968;28;20162;-94
2023/11/08 00:44:54;;;;;;;3.33;1.33;;;8.80;99.90;;;;;;5044622;28;20189;-90
2023/11/08 00:47:21;;;;;;;5.07;1.80;;;8.80;99.90;;;;;;5024955;28;20218;-89
2023/11/08 00:49:53;;;;;;;5.47;1.70;;;8.70;99.90;;;;;;5022387;28;20163;-92
2023/11/08 00:52:27;;;;;;;5.80;1.47;;;8.70;99.90;;;;;;5039423;28;20173;-89
2023/11/08 00:54:57;;;;;;;5.17;1.83;;;8.50;99.90;;;;;;5024335;28;20203;-90
2023/11/08 00:57:25;;;;;;;5.50;1.60;;;8.70;99.90;;;;;;5054888;28;20173;-87
2023/11/08 01:00:11;;;;;;;2.90;1.30;;;8.70;99.90;;;;;;5038773;28;20171;-91
2023/11/08 01:03:26;;;;;;;4.80;1.97;;;8.70;99.90;;;;;;5029895;28;20182;-93
2023/11/08 01:06:52;;;;;;;4.20;1.37;;;8.70;99.90;;;;;;5031071;28;20174;-93
2023/11/08 01:09:29;;;;;;;3.90;1.30;;;8.70;99.90;;;;;;5026434;28;20189;-91
2023/11/08 01:12:05;;;;;;;2.97;1.30;;;8.80;99.90;;;;;;5029349;28;20193;-95
2023/11/08 01:14:34;;;;;;;5.27;1.87;;;8.80;99.90;;;;;;5032432;28;20189;-94
2023/11/08 01:17:00;;;;;;;3.17;1.40;;;8.60;99.90;;;;;;5053373;28;20166;-95
2023/11/08 01:19:28;;;;;;;5.63;2.00;;;8.60;99.90;;;;;;5029675;28;20271;-94
2023/11/08 01:21:58;;;;;;;7.43;2.50;;;8.60;99.90;;;;;;5027904;28;20174;-94
2023/11/08 01:24:25;;;;;;;3.73;1.40;;;8.50;99.90;;;;;;5026030;28;20174;-95
2023/11/08 01:26:52;;;;;;;3.77;1.50;;;8.60;99.90;;;;;;5028089;28;20206;-94
2023/11/08 01:29:19;;;;;;;4.73;1.80;;;8.60;99.90;;;;;;5027825;28;20593;-94
2023/11/08 01:31:47;;;;;;;5.40;1.60;;;8.60;99.90;;;;;;5029235;28;20210;-93
2023/11/08 01:34:15;;;;;;;3.40;1.63;;;8.60;99.90;;;;;;5033756;28;20190;-93
2023/11/08 01:36:48;;;;;;;5.63;1.90;;;8.50;99.90;;;;;;5036351;28;20174;-93
2023/11/08 01:39:17;;;;;;;4.97;1.70;;;8.50;99.90;;;;;;5036404;28;20169;-94
2023/11/08 01:42:14;;;;;;;5.70;1.80;;;8.50;99.90;;;;;;5035236;28;20166;-92
2023/11/08 01:44:53;;;;;;;6.23;1.97;;;8.50;99.90;;;;;;5032207;28;20174;-92
2023/11/08 01:47:21;;;;;;;5.33;1.70;;;8.40;99.90;;;;;;5017706;28;20218;-94
2023/11/08 01:49:53;;;;;;;3.63;1.57;;;8.40;99.90;;;;;;4997571;28;20223;-93
2023/11/08 01:52:22;;;;;;;4.10;1.77;;;8.40;99.90;;;;;;5029375;28;20167;-93
2023/11/08 01:54:50;;;;;;;2.73;1.90;;;8.50;99.90;;;;;;5031192;28;20209;-93
2023/11/08 01:57:29;;;;;;;6.47;1.87;;;8.50;99.90;;;;;;5028806;28;20190;-93
2023/11/08 02:00:00;;;;;;;7.87;1.90;;;8.50;99.90;;;;;;5011845;28;20200;-89
2023/11/08 02:02:35;;;;;;;3.63;1.90;;;8.50;99.90;;;;;;5030771;28;20182;-93
2023/11/08 02:05:14;;;;;;;3.50;1.87;;;8.50;99.90;;;;;;5034246;28;20178;-91
2023/11/08 02:07:41;;;;;;;5.90;1.97;;;8.40;99.90;;;;;;5023058;28;20229;-93
2023/11/08 02:10:10;;;;;;;4.63;1.77;;;8.50;99.90;;;;;;5031006;28;20189;-94
2023/11/08 02:12:47;;;;;;;3.80;2.00;;;8.40;99.90;;;;;;5024345;28;20170;-94
2023/11/08 02:15:15;;;;;;;5.80;2.23;;;8.50;99.90;;;;;;5026212;28;20162;-95
2023/11/08 02:17:44;;;;;;;6.13;1.87;;;8.50;99.90;;;;;;5025932;28;20162;-93
2023/11/08 02:20:10;;;;;;;5.70;2.07;;;8.50;99.90;;;;;;5026175;28;20174;-93
2023/11/08 02:22:37;;;;;;;3.97;1.90;;;8.50;99.90;;;;;;5026245;28;20167;-92
2023/11/08 02:28:01;;;;;;;6.03;2.00;;;8.50;99.90;;;;;;5004188;28;20254;-94
2023/11/08 02:30:35;;;;;;;5.00;1.67;;;8.40;99.90;;;;;;5023598;28;20174;-94
2023/11/08 02:33:01;;;;;;;5.57;2.00;;;8.50;99.90;;;;;;5028781;28;20178;-93
2023/11/08 02:35:34;;;;;;;4.50;1.90;;;8.50;99.90;;;;;;5031404;28;20161;-92
2023/11/08 02:38:04;;;;;;;5.47;2.00;;;8.40;99.90;;;;;;5040396;28;20182;-93
2023/11/08 02:40:33;;;;;;;6.90;1.97;;;8.60;99.90;;;;;;5023929;28;20182;-91
2023/11/08 02:43:06;;;;;;;5.17;1.97;;;8.50;99.90;;;;;;5026523;28;20186;-94
2023/11/08 02:45:42;;;;;;;4.20;1.80;;;8.50;99.90;;;;;;5026413;28;20170;-94
2023/11/08 02:48:08;;;;;;;4.73;2.43;;;8.40;99.90;;;;;;5023434;28;20229;-91
2023/11/08 02:50:39;;;;;;;6.67;2.27;;;8.40;99.90;;;;;;5010050;28;20198;-93
2023/11/08 02:53:08;;;;;;;7.77;2.07;;;8.40;99.90;;;;;;5026435;28;20643;-94
2023/11/08 02:55:46;;;;;;;5.87;2.17;;;8.40;99.90;;;;;;5024953;28;20194;-93
2023/11/08 02:58:16;;;;;;;5.23;1.73;;;8.40;99.90;;;;;;5024535;28;20163;-93
2023/11/08 03:00:54;;;;;;;7.63;2.60;;;8.40;99.90;;;;;;5023969;28;20194;-93
2023/11/08 03:03:27;;;;;;;3.70;1.90;;;8.30;99.90;;;;;;5023459;28;20196;-95
2023/11/08 03:06:43;;;;;;;8.27;2.50;;;8.30;99.90;;;;;;5024232;28;20249;-92
2023/11/08 03:09:15;;;;;;;5.17;1.90;;;8.30;99.90;;;;;;5023538;28;20178;-91
2023/11/08 03:11:43;;;;;;;7.07;1.83;;;8.30;99.90;;;;;;5025784;28;20265;-94
2023/11/08 03:14:11;;;;;;;4.83;1.80;;;8.30;99.90;;;;;;5025352;28;20174;-93
2023/11/08 03:16:46;;;;;;;4.10;1.73;;;8.30;99.90;;;;;;5024670;28;20228;-92
2023/11/08 03:19:20;;;;;;;4.40;1.63;;;8.40;99.90;;;;;;5027309;28;20205;-92
2023/11/08 03:22:00;;;;;;;4.97;1.70;;;8.40;99.90;;;;;;5037411;28;20234;-90
2023/11/08 03:24:30;;;;;;;6.17;1.70;;;8.50;99.90;;;;;;5035376;28;20163;-93
2023/11/08 03:27:06;;;;;;;4.60;2.23;;;8.50;99.90;;;;;;5028359;28;20214;-94
2023/11/08 03:29:56;;;;;;;7.23;2.13;;;8.50;99.90;;;;;;5028097;28;20176;-95
2023/11/08 03:32:27;;;;;;;5.50;1.60;;;8.50;99.90;;;;;;5027611;28;20182;-93
2023/11/08 03:38:50;;;;;;;6.50;2.33;;;8.50;99.90;;;;;;5028113;28;20190;-89
2023/11/08 03:41:21;;;;;;;5.23;1.67;;;8.40;99.90;;;;;;5034733;28;20237;-92
2023/11/08 03:43:47;;;;;;;5.30;2.00;;;8.40;99.90;;;;;;5032464;28;20190;-92
2023/11/08 03:46:42;;;;;;;7.37;1.60;;;8.50;99.90;;;;;;5018975;28;20158;-87
2023/11/08 03:49:10;;;;;;;4.70;1.77;;;8.50;99.90;;;;;;5033827;28;20197;-91
2023/11/08 03:51:52;;;;;;;;;;;;;;;;;;;;;
2023/11/08 03:54:55;;;;;;;3.63;1.47;;;8.50;99.90;;;;;;5030775;28;20214;-93
2023/11/08 03:57:49;;;;;;;8.53;2.17;;;8.60;99.90;;;;;;5027180;28;20209;-93
2023/11/08 04:00:17;;;;;;;5.57;1.57;;;8.70;99.90;;;;;;5029697;28;20210;-93
2023/11/08 04:02:47;;;;;;;6.03;1.90;;;8.60;99.90;;;;;;5031034;28;20198;-94
2023/11/08 04:05:16;;;;;;;5.13;1.70;;;8.70;99.90;;;;;;5035772;28;20197;-89
2023/11/08 04:07:59;;;;;;;5.77;1.87;;;8.70;99.90;;;;;;5038623;28;20217;-90
2023/11/08 04:10:26;;;;;;;6.97;2.23;;;8.80;99.90;;;;;;5035082;28;20190;-91
2023/11/08 04:12:55;;;;;;;5.10;1.80;;;8.80;99.90;;;;;;5038949;28;20171;-92
2023/11/08 04:15:20;;;;;;;4.73;1.73;;;8.80;99.90;;;;;;5036264;28;20185;-90
2023/11/08 04:17:48;;;;;;;5.57;1.83;;;8.80;99.90;;;;;;5040605;28;20213;-89
2023/11/08 04:20:20;;;;;;;7.83;2.70;;;8.90;99.90;;;;;;5039718;28;20157;-94
2023/11/08 04:22:56;;;;;;;6.03;2.30;;;8.90;99.90;;;;;;5035395;28;20158;-93
2023/11/08 04:25:26;;;;;;;5.43;1.77;;;8.80;99.90;;;;;;5033819;28;20151;-92
2023/11/08 04:27:58;;;;;;;5.90;1.93;;;8.80;99.90;;;;;;5035880;28;20186;-89
2023/11/08 04:30:41;;;;;;;4.17;1.53;;;8.80;99.90;;;;;;5041690;28;20146;-93
2023/11/08 04:33:52;;;;;;;6.17;2.30;;;9.00;99.90;;;;;;5056409;28;20174;-94
2023/11/08 04:36:46;;;;;;;8.50;2.30;;;8.90;99.90;;;;;;5039713;28;20174;-87
2023/11/08 04:39:22;;;;;;;5.73;2.40;;;9.00;99.90;;;;;;5040907;28;20185;-88
2023/11/08 04:42:46;;;;;;;;;;;;;;;;;;;;;
2023/11/08 04:46:00;;;;;;;6.13;2.13;;;9.00;99.90;;;;;;5036479;28;20201;-91
2023/11/08 04:48:28;;;;;;;11.20;2.20;;;9.00;99.90;;;;;;5052306;28;20277;-89
2023/11/08 04:51:36;;;;;;;5.53;1.90;;;9.00;99.90;;;;;;5019467;28;20166;-89
2023/11/08 04:54:12;;;;;;;8.13;2.30;;;9.00;99.90;;;;;;5035199;28;20208;-92
2023/11/08 04:56:55;;;;;;;5.37;1.90;;;9.00;99.90;;;;;;5033757;28;20198;-89
2023/11/08 04:59:28;;;;;;;9.27;2.40;;;9.20;99.90;;;;;;5036251;28;20200;-89
2023/11/08 05:01:59;;;;;;;6.90;2.50;;;9.00;99.90;;;;;;5039199;28;20182;-90
2023/11/08 05:04:56;;;;;;;5.00;2.00;;;9.10;99.90;;;;;;5040275;28;20158;-88
2023/11/08 05:07:25;;;;;;;7.10;2.30;;;9.00;99.90;;;;;;5039759;28;20202;-91
2023/11/08 05:09:56;;;;;;;6.30;2.37;;;9.10;99.90;;;;;;5021840;28;20642;-91
2023/11/08 05:12:45;;;;;;;11.53;2.77;;;9.10;99.90;;;;;;5051251;28;20177;-96
2023/11/08 05:15:44;;;;;;;6.27;2.10;;;9.20;99.90;;;;;;5029169;28;20186;-92
2023/11/08 05:21:50;;;;;;;7.07;2.33;;;9.10;99.90;;;;;;4986702;28;20199;-90
2023/11/08 05:24:41;;;;;;;6.20;2.33;;;9.20;99.90;;;;;;4979256;28;20202;-95
2023/11/08 05:27:17;;;;;;;8.23;2.63;;;8.90;99.90;;;;;;4997094;28;20276;-91
2023/11/08 05:30:25;;;;;;;9.57;2.57;;;9.10;99.90;;;;;;4997200;28;20194;-91
2023/11/08 05:33:17;;;;;;;6.07;2.57;;;9.10;99.90;;;;;;5030450;28;20194;-90
2023/11/08 05:36:29;;;;;;;5.70;2.30;;;9.10;99.90;;;;;;5037234;28;20229;-89
2023/11/08 05:39:27;;;;;;;9.47;2.67;;;9.30;99.90;;;;;;5037147;28;20179;-89
2023/11/08 05:41:53;;;;;;;8.60;2.50;;;9.30;99.90;;;;;;5035125;28;20183;-94
2023/11/08 05:44:36;;;;;;;8.20;2.40;;;9.30;99.90;;;;;;5034110;28;20206;-91
2023/11/08 05:47:29;;;;;;;6.27;2.33;;;9.10;99.90;;;;;;5033896;28;20225;-94
2023/11/08 05:50:00;;;;;;;6.63;2.60;;;9.00;99.90;;;;;;5031371;28;20214;-91
2023/11/08 05:52:30;;;;;;;11.07;2.57;;;9.20;99.90;;;;;;5039653;28;20181;-88
2023/11/08 05:55:00;;;;;;;9.47;2.97;;;9.20;99.90;;;;;;5039400;28;20164;-88
2023/11/08 05:58:05;;;;;;;6.57;2.40;;;9.30;99.90;;;;;;5038391;28;20230;-94
2023/11/08 06:04:03;;;;;;;6.57;2.17;;;9.10;99.90;;;;;;5039495;28;20172;-88
2023/11/08 06:06:50;;;;;;;7.20;2.87;;;9.10;99.90;;;;;;5037726;28;20218;-90
2023/11/08 06:09:19;;;;;;;9.03;2.80;;;9.10;99.90;;;;;;5032201;28;20162;-92
2023/11/08 06:12:07;;;;;;;7.80;2.63;;;9.10;99.90;;;;;;5033054;28;20184;-88
2023/11/08 06:14:40;;;;;;;8.03;3.27;;;9.10;99.90;;;;;;5033025;28;20158;-91
2023/11/08 06:17:37;;;;;;;12.20;4.20;;;9.00;99.90;;;;;;5034623;28;20189;-90
2023/11/08 06:20:38;;;;;;;12.10;4.70;;;9.00;99.90;;;;;;5028413;28;20224;-91
2023/11/08 06:23:31;;;;;;;10.90;4.50;;;9.00;99.90;;;;;;5034600;28;20174;-89
2023/11/08 06:26:19;;;;;;;11.17;4.60;;;9.00;99.90;;;;;;5035281;28;20225;-91
2023/11/08 06:28:58;;;;;;;11.80;4.17;;;9.00;99.90;;;;;;5036496;28;20166;-94
2023/11/08 06:32:06;;;;;;;9.67;4.70;;;8.90;99.90;;;;;;5030701;28;20210;-93
2023/11/08 06:35:01;;;;;;;14.07;4.87;;;8.80;99.90;;;;;;5049374;28;20178;-89
2023/11/08 06:37:39;;;;;;;11.97;5.33;;;8.80;99.90;;;;;;5038426;28;20206;-88
2023/11/08 06:40:22;;;;;;;14.17;5.50;;;8.80;99.90;;;;;;5037894;28;20173;-90
2023/11/08 06:43:21;;;;;;;13.27;5.83;;;8.80;99.90;;;;;;5032287;28;20174;-93
2023/11/08 06:46:15;;;;;;;12.47;5.60;;;8.70;99.90;;;;;;5032956;28;20205;-92
2023/11/08 06:48:43;;;;;;;16.57;5.63;;;8.70;99.90;;;;;;5027032;28;20222;-93
2023/11/08 06:51:13;;;;;;;12.70;5.23;;;8.70;99.90;;;;;;5028546;28;20173;-90
2023/11/08 06:54:01;;;;;;;15.10;5.90;;;8.70;99.90;;;;;;5024352;28;20222;-94
2023/11/08 06:56:41;;;;;;;12.63;6.03;;;8.70;99.90;;;;;;5023416;28;20174;-91
2023/11/08 06:59:15;;;;;;;10.00;5.40;;;8.60;99.90;;;;;;5030603;28;20170;-88
2023/11/08 07:01:56;;;;;;;14.80;5.70;;;8.60;99.90;;;;;;5036682;28;20166;-89
2023/11/08 07:04:45;;;;;;;12.37;5.93;;;8.60;99.90;;;;;;5035190;28;20186;-91
2023/11/08 07:07:34;;;;;;;11.87;5.60;;;8.60;99.90;;;;;;5028514;28;20222;-91
2023/11/08 07:10:05;;;;;;;13.63;5.27;;;8.60;99.90;;;;;;5042042;28;20230;-93
2023/11/08 07:12:43;;;;;;;11.30;4.97;;;8.70;99.90;;;;;;5042448;28;20174;-92
2023/11/08 07:15:20;;;;;;;11.27;5.30;;;8.60;99.90;;;;;;5019303;28;20185;-91
2023/11/08 07:17:47;;;;;;;11.80;5.27;;;8.60;99.90;;;;;;5031633;28;20194;-92
2023/11/08 07:20:13;;;;;;;10.23;4.53;;;8.70;99.90;;;;;;5030491;28;20166;-90
2023/11/08 07:22:47;;;;;;;9.47;4.03;;;8.70;99.90;;;;;;5034260;28;20204;-92
2023/11/08 07:25:20;;;;;;;9.80;4.07;;;8.80;99.90;;;;;;5035415;28;20218;-91
2023/11/08 07:27:47;;;;;;;10.03;4.50;;;8.70;99.90;;;;;;5025303;28;20198;-93
2023/11/08 07:30:16;;;;;;;9.50;4.77;;;8.80;99.90;;;;;;5025144;28;20174;-93
2023/11/08 07:33:22;;;;;;;11.77;5.47;;;8.80;99.90;;;;;;5028360;28;20184;-89
2023/11/08 07:36:11;;;;;;;11.50;4.30;;;9.00;99.90;;;;;;5032399;28;20182;-92
2023/11/08 07:38:44;;;;;;;11.77;4.53;;;8.90;99.90;;;;;;5022241;28;20197;-90
2023/11/08 07:41:10;;;;;;;9.70;4.80;;;9.00;99.90;;;;;;5024292;28;20182;-93
2023/11/08 07:43:38;;;;;;;12.67;4.27;;;8.80;99.90;;;;;;5041726;28;20180;-93
2023/11/08 07:46:15;;;;;;;16.97;4.70;;;8.90;99.90;;;;;;5028828;28;20195;-94
2023/11/08 07:48:41;;;;;;;10.43;4.30;;;9.00;99.90;;;;;;5028942;28;20214;-93
2023/11/08 07:51:11;;;;;;;8.23;4.73;;;9.10;99.90;;;;;;5032646;28;20182;-90
2023/11/08 07:54:00;;;;;;;10.27;4.40;;;9.10;99.90;;;;;;5034798;28;20224;-90
2023/11/08 07:57:21;;;;;;;9.00;3.67;;;9.10;99.90;;;;;;5033811;28;20216;-90
2023/11/08 07:59:50;;;;;;;10.20;4.77;;;9.20;99.90;;;;;;5030891;28;20183;-90
2023/11/08 08:03:22;;;;;;;12.63;4.73;;;9.20;99.90;;;;;;5032076;28;20194;-90
2023/11/08 08:06:28;;;;;;;16.17;4.57;;;9.20;99.90;;;;;;4948560;28;20203;-94
2023/11/08 08:10:00;;;;;;;;;;;;;;;;;;;;;
2023/11/08 08:12:56;;;;;;;9.37;4.97;;;9.30;99.90;;;;;;5006764;28;20186;-93
2023/11/08 08:15:24;;;;;;;14.03;4.77;;;9.30;99.90;;;;;;5036301;28;20193;-93
2023/11/08 08:17:50;;;;;;;7.17;4.90;;;9.20;99.90;;;;;;5038786;28;20254;-91
2023/11/08 08:20:38;;;;;;;9.93;4.80;;;9.20;99.90;;;;;;5062675;23;20205;-93
2023/11/08 08:23:28;;;;;;;10.30;5.27;;;9.30;99.90;;;;;;5049993;28;20170;-93
2023/11/08 08:26:24;;;;;;;11.70;5.37;;;9.30;99.90;;;;;;5048963;28;20185;-93
2023/11/08 08:29:03;;;;;;;9.23;4.87;;;9.40;99.90;;;;;;5059891;28;20170;-92
2023/11/08 08:31:37;;;;;;;10.27;4.63;;;9.40;99.90;;;;;;5043722;28;20233;-92
2023/11/08 08:34:14;;;;;;;11.00;5.27;;;9.50;99.90;;;;;;5059612;28;20161;-91
2023/11/08 08:37:00;;;;;;;9.83;4.50;;;9.50;99.90;;;;;;5051157;28;20261;-90
2023/11/08 08:39:59;;;;;;;7.60;5.10;;;9.60;99.90;;;;;;5038318;28;20185;-93
2023/11/08 08:43:07;;;;;;;8.03;4.53;;;9.50;99.90;;;;;;5043764;28;20262;-93
2023/11/08 08:45:39;;;;;;;9.20;4.93;;;9.70;99.90;;;;;;5043947;28;20178;-93
2023/11/08 08:48:20;;;;;;;13.83;5.27;;;9.70;99.90;;;;;;5041874;28;21002;-93
2023/11/08 08:50:48;;;;;;;10.73;4.70;;;9.70;99.90;;;;;;5032842;28;20186;-92
2023/11/08 08:53:18;;;;;;;8.73;4.73;;;9.60;99.90;;;;;;5035985;28;20223;-92
2023/11/08 08:55:47;;;;;;;11.33;4.53;;;9.70;99.90;;;;;;5007918;28;20191;-91
2023/11/08 08:58:13;;;;;;;10.47;4.93;;;9.80;99.90;;;;;;5013399;28;20170;-87
2023/11/08 09:00:40;;;;;;;12.03;5.13;;;10.40;99.90;;;;;;5010522;28;20171;-90
2023/11/08 09:03:08;;;;;;;10.67;5.37;;;10.20;99.90;;;;;;5010172;28;20179;-93
2023/11/08 09:05:35;;;;;;;9.67;5.03;;;10.20;99.90;;;;;;5003399;28;20184;-95
2023/11/08 09:08:04;;;;;;;10.17;4.63;;;10.30;99.90;;;;;;5006693;28;20246;-91
2023/11/08 09:10:29;;;;;;;8.10;4.40;;;10.20;99.90;;;;;;5036127;28;20545;-92
2023/11/08 09:12:56;;;;;;;11.53;4.73;;;10.30;99.90;;;;;;5019962;28;20172;-92
2023/11/08 09:15:22;;;;;;;8.43;4.57;;;10.20;99.90;;;;;;5025650;28;20167;-92
2023/11/08 09:17:51;;;;;;;8.07;4.70;;;10.30;99.90;;;;;;5039658;28;20196;-92
2023/11/08 09:20:19;;;;;;;9.43;4.43;;;10.40;99.90;;;;;;5034797;28;20182;-92
2023/11/08 09:22:48;;;;;;;10.57;4.80;;;10.40;99.90;;;;;;5031036;28;20184;-92
2023/11/08 09:25:26;;;;;;;9.43;4.00;;;10.60;99.90;;;;;;5017882;28;20515;-91
2023/11/08 09:28:04;;;;;;;9.17;3.80;;;10.50;99.90;;;;;;5016434;28;20199;-91
2023/11/08 09:30:33;;;;;;;8.63;3.90;;;10.60;99.90;;;;;;5015068;28;20267;-91
2023/11/08 09:32:58;;;;;;;8.57;3.77;;;10.70;99.90;;;;;;5024584;28;20178;-94
2023/11/08 09:35:25;;;;;;;10.03;3.70;;;11.10;99.90;;;;;;5021548;28;20178;-92
2023/11/08 09:37:55;;;;;;;7.17;3.70;;;10.90;99.90;;;;;;5023368;28;20182;-92
2023/11/08 09:40:21;;;;;;;6.73;3.23;;;11.00;99.90;;;;;;5018986;28;20182;-92
2023/11/08 09:42:48;;;;;;;9.70;3.63;;;11.00;99.90;;;;;;5010887;28;20194;-93
2023/11/08 09:45:32;;;;;;;;;;;;;;;;;;;;;
2023/11/08 09:48:03;;;;;;;7.77;3.03;;;11.10;99.90;;;;;;5016095;28;20227;-93
2023/11/08 09:50:31;;;;;;;9.03;3.13;;;11.20;99.90;;;;;;5015874;28;20181;-91
2023/11/08 09:52:59;;;;;;;7.80;3.07;;;11.10;99.90;;;;;;5019838;28;20213;-91
2023/11/08 09:55:27;;;;;;;7.00;3.67;;;11.00;99.90;;;;;;5015866;28;20274;-91
2023/11/08 09:57:54;;;;;;;6.73;2.83;;;11.30;99.90;;;;;;5026555;28;20228;-93
2023/11/08 10:00:32;;;;;;;7.63;3.17;;;11.20;99.90;;;;;;5014273;28;20246;-91
2023/11/08 10:02:58;;;;;;;9.27;3.23;;;11.20;99.90;;;;;;5003374;28;20181;-82
2023/11/08 10:05:25;;;;;;;9.27;3.37;;;11.20;99.90;;;;;;5010705;28;20268;-83
2023/11/08 10:07:51;;;;;;;8.83;2.60;;;11.40;99.90;;;;;;5013041;28;20654;-83
2023/11/08 10:10:17;;;;;;;7.70;3.13;;;11.60;99.90;;;;;;5010200;28;20182;-82
2023/11/08 10:13:01;;;;;;;5.63;3.27;;;11.60;99.90;;;;;;5001470;28;20261;-92
2023/11/08 10:15:30;;;;;;;9.07;3.30;;;11.70;99.90;;;;;;5053330;23;20245;-92
2023/11/08 10:17:56;;;;;;;8.47;2.70;;;11.30;99.90;;;;;;5025339;28;20234;-90
2023/11/08 10:20:28;;;;;;;7.90;3.03;;;11.20;99.90;;;;;;5021853;28;20195;-90
2023/11/08 10:22:54;;;;;;;10.70;3.93;;;11.30;99.90;;;;;;5025009;28;20535;-92
2023/11/08 10:25:26;;;;;;;6.53;2.73;;;11.40;99.90;;;;;;5029043;28;20173;-92
2023/11/08 10:28:06;;;;;;;6.33;2.97;;;11.50;99.90;;;;;;5025903;28;20258;-90
2023/11/08 10:30:41;;;;;;;7.63;2.87;;;11.50;99.90;;;;;;5004767;28;20267;-89
2023/11/08 10:34:08;;;;;;;7.27;2.50;;;11.50;99.90;;;;;;5027996;28;20203;-88
2023/11/08 10:36:37;;;;;;;8.87;3.00;;;11.40;99.90;;;;;;5030546;28;20213;-90
2023/11/08 10:39:13;;;;;;;10.23;2.40;;;11.50;99.90;;;;;;5020705;28;20269;-93
2023/11/08 10:41:41;;;;;;;7.30;2.63;;;11.50;99.90;;;;;;5022732;28;20610;-90
2023/11/08 10:44:21;;;;;;;7.77;3.00;;;11.60;99.90;;;;;;5029421;28;20191;-89
2023/11/08 10:46:57;;;;;;;6.60;3.10;;;11.60;99.90;;;;;;5026507;28;20199;-89
2023/11/08 10:49:26;;;;;;;4.23;2.37;;;11.70;99.90;;;;;;5032679;28;20218;-89
2023/11/08 10:51:53;;;;;;;7.03;2.30;;;11.60;99.90;;;;;;5032108;28;20183;-91
2023/11/08 10:54:19;;;;;;;6.00;2.27;;;11.60;99.90;;;;;;5031736;28;20228;-92
2023/11/08 10:56:45;;;;;;;7.03;2.13;;;11.70;99.90;;;;;;5031583;28;20204;-95
2023/11/08 10:59:12;;;;;;;9.67;2.30;;;11.80;99.90;;;;;;5023439;28;20181;-89
2023/11/08 11:01:42;;;;;;;7.83;2.63;;;11.70;99.90;;;;;;5026943;28;20195;-89
2023/11/08 11:04:13;;;;;;;10.03;2.63;;;11.80;99.90;;;;;;5006102;28;20182;-90
2023/11/08 11:06:40;;;;;;;9.03;2.30;;;11.90;99.90;;;;;;5021805;28;20177;-93
2023/11/08 11:09:10;;;;;;;9.90;2.63;;;11.90;99.90;;;;;;5022088;28;20675;-91
2023/11/08 11:11:42;;;;;;;6.43;2.40;;;11.90;99.90;;;;;;5023616;28;20206;-89
2023/11/08 11:14:41;;;;;;;5.80;2.53;;;11.90;99.90;;;;;;5029093;28;20251;-91
2023/11/08 11:17:16;;;;;;;7.33;2.80;;;11.90;99.90;;;;;;5027757;28;20190;-90
2023/11/08 11:19:45;;;;;;;8.53;2.40;;;11.90;99.90;;;;;;5028476;28;20173;-90
2023/11/08 11:22:16;;;;;;;8.30;2.10;;;11.90;99.90;;;;;;5024427;28;20178;-93
2023/11/08 11:24:45;;;;;;;9.20;2.33;;;12.00;99.90;;;;;;5025159;28;20178;-92
2023/11/08 11:27:31;;;;;;;7.87;2.17;;;12.10;99.90;;;;;;5021608;28;20206;-93
2023/11/08 11:30:21;;;;;;;5.83;1.87;;;12.00;99.90;;;;;;5036496;28;20185;-90
2023/11/08 11:32:51;;;;;;;11.93;2.40;;;11.90;99.90;;;;;;5027221;28;20244;-92
2023/11/08 11:35:43;;;;;;;6.53;2.27;;;11.90;99.90;;;;;;5037940;28;20173;-91
2023/11/08 11:38:13;;;;;;;5.57;2.47;;;11.80;99.90;;;;;;5035586;28;20172;-85
2023/11/08 11:40:44;;;;;;;9.37;2.37;;;11.80;99.90;;;;;;5031252;28;20186;-92
2023/11/08 11:43:52;;;;;;;6.37;2.37;;;11.70;99.90;;;;;;5019264;28;20171;-90
2023/11/08 11:46:21;;;;;;;4.80;2.30;;;11.80;99.90;;;;;;5018729;28;20198;-89
2023/11/08 11:49:08;;;;;;;7.83;2.47;;;11.70;99.90;;;;;;5024866;28;20224;-93
2023/11/08 11:51:39;;;;;;;6.23;2.23;;;11.60;99.90;;;;;;5021822;28;20220;-92
2023/11/08 11:54:07;;;;;;;6.43;2.30;;;11.70;99.90;;;;;;5018860;28;20189;-91
2023/11/08 11:56:35;;;;;;;4.90;2.20;;;11.60;99.90;;;;;;5019333;28;20210;-90
2023/11/08 11:59:01;;;;;;;11.60;2.60;;;11.60;99.90;;;;;;5027948;28;20229;-90
2023/11/08 12:01:31;;;;;;;6.37;2.30;;;11.60;99.90;;;;;;5021207;28;20166;-92
2023/11/08 12:03:58;;;;;;;6.50;2.87;;;11.60;99.90;;;;;;5021176;28;20176;-91
2023/11/08 12:06:24;;;;;;;4.63;2.17;;;11.60;99.90;;;;;;5020219;28;20186;-94
2023/11/08 12:08:50;;;;;;;7.67;2.70;;;11.50;99.90;;;;;;5023856;28;20587;-90
2023/11/08 12:11:18;;;;;;;8.03;2.40;;;11.50;99.90;;;;;;5021718;28;20606;-92
2023/11/08 12:14:01;;;;;;;8.47;2.40;;;11.50;99.90;;;;;;5021993;28;20186;-94
2023/11/08 12:16:28;;;;;;;5.57;2.23;;;11.50;99.90;;;;;;5024791;28;20189;-91
2023/11/08 12:18:54;;;;;;;6.27;2.50;;;11.40;99.90;;;;;;5029541;28;20225;-88
2023/11/08 12:21:20;;;;;;;6.77;2.20;;;11.30;99.90;;;;;;5031553;28;20192;-87
2023/11/08 12:23:50;;;;;;;5.40;2.20;;;11.40;99.90;;;;;;5033541;28;20180;-87
2023/11/08 12:26:16;;;;;;;8.27;3.73;;;11.20;99.90;;;;;;5032026;28;20174;-89
2023/11/08 12:28:46;;;;;;;10.53;5.63;;;11.20;99.90;;;;;;5032265;28;20301;-89
2023/11/08 12:31:18;;;;;;;5.57;2.17;;;11.30;99.90;;;;;;5041887;28;20160;-91
2023/11/08 12:33:43;;;;;;;7.03;2.30;;;11.20;99.90;;;;;;5020587;28;20180;-89
2023/11/08 12:36:09;;;;;;;4.10;1.90;;;11.30;99.90;;;;;;5028289;28;20176;-89
2023/11/08 12:38:39;;;;;;;6.70;2.47;;;11.30;99.90;;;;;;5034694;28;20629;-90
2023/11/08 12:41:08;;;;;;;6.30;1.60;;;11.30;99.90;;;;;;5053246;28;20172;-88
2023/11/08 12:43:34;;;;;;;6.27;2.30;;;11.40;99.90;;;;;;5035395;28;20199;-90
2023/11/08 12:46:14;;;;;;;7.03;2.13;;;11.40;99.90;;;;;;5049426;28;20642;-87
2023/11/08 12:48:42;;;;;;;8.03;2.03;;;11.50;99.90;;;;;;5024514;28;20265;-90
2023/11/08 12:51:11;;;;;;;8.27;2.20;;;11.40;99.90;;;;;;5034589;28;20622;-90
2023/11/08 12:53:50;;;;;;;5.77;2.47;;;11.40;99.90;;;;;;5043290;28;20215;-96
2023/11/08 13:05:03;;;;;;;;;;;;;;;;;;;;;
2023/11/08 13:30:04;;;;;;;4.70;1.80;;;11.80;99.90;;;;;;5556340;23;20223;-87
2023/11/08 14:42:34;;;;;;;8.73;4.07;;;11.10;99.90;;;;;;5423600;22;20232;-87
2023/11/08 16:54:52;;;;;;;3.60;1.70;;;10.90;99.90;;;;;;4964959;28;20248;-87
2023/11/08 17:10:29;;;;;;;5.83;2.00;;;11.00;99.90;;;;;;4979111;28;20199;-88
2023/11/08 17:14:11;;;;;;;3.80;1.53;;;11.00;99.90;;;;;;4970514;28;20204;-87
2023/11/08 17:17:12;;;;;;;;;;;;;;;;;;;;;
2023/11/08 17:20:32;;;;;;;;;;;;;;;;;;;;;
2023/11/08 17:59:37;;;;;;;4.83;2.23;;;11.20;99.90;;;;;;5813979;23;20202;-88
2023/11/08 18:10:43;;;;;;;5.93;2.13;;;11.20;99.90;;;;;;4937007;28;20163;-87
2023/11/08 18:13:22;;;;;;;4.10;1.53;;;11.20;99.90;;;;;;4919938;29;20194;-87
2023/11/08 18:16:22;;;;;;;;;;;;;;;;;;;;;
2023/11/08 18:22:12;;;;;;;4.33;1.90;;;11.20;99.90;;;;;;5360487;23;20441;-89
2023/11/08 18:25:16;;;;;;;2.87;1.70;;;11.20;99.90;;;;;;4949245;28;20246;-87
